Time;durP1;ratioP1;P1;durP2;ratioP2;P2;SDS_P1;SDS_P2;PMS_P1;PMS_P2;Temp;Humidity;BMP_temperature;BMP_pressure;BME280_temperature;BME280_humidity;BME280_pressure;Samples;Min_cycle;Max_cycle;Signal;HPM_P1;HPM_P2
2023/09/15 00:01:27;;;;;;;10.15;7.93;;;16.40;99.90;;;;;;5071493;28;20544;-54
2023/09/15 00:03:52;;;;;;;13.82;8.65;;;16.40;99.90;;;;;;5061853;28;20070;-53
2023/09/15 00:06:18;;;;;;;11.73;7.45;;;16.40;99.90;;;;;;5069840;28;20036;-53
2023/09/15 00:09:03;;;;;;;16.98;8.00;;;16.40;99.90;;;;;;5071976;28;20021;-53
2023/09/15 00:11:39;;;;;;;12.75;8.68;;;16.30;99.90;;;;;;5071526;28;20037;-52
2023/09/15 00:14:07;;;;;;;13.38;8.50;;;16.30;99.90;;;;;;5072131;28;20031;-53
2023/09/15 00:16:33;;;;;;;12.20;7.78;;;16.30;99.90;;;;;;5070002;28;20044;-53
2023/09/15 00:18:58;;;;;;;15.45;8.50;;;16.30;99.90;;;;;;5067587;28;20016;-54
2023/09/15 00:21:24;;;;;;;13.07;8.52;;;16.30;99.90;;;;;;5068465;28;20032;-53
2023/09/15 00:23:50;;;;;;;10.05;7.90;;;16.20;99.90;;;;;;5071464;28;20024;-53
2023/09/15 00:26:15;;;;;;;13.05;8.70;;;16.20;99.90;;;;;;5069983;28;20100;-53
2023/09/15 00:28:41;;;;;;;16.00;9.35;;;16.20;99.90;;;;;;5068799;28;20116;-53
2023/09/15 00:31:09;;;;;;;20.33;9.52;;;16.30;99.90;;;;;;5071272;28;20449;-53
2023/09/15 00:33:34;;;;;;;12.10;8.75;;;16.20;99.90;;;;;;5071480;28;20107;-50
2023/09/15 00:36:02;;;;;;;15.52;9.05;;;16.20;99.90;;;;;;5066953;28;20469;-53
2023/09/15 00:38:27;;;;;;;12.90;9.15;;;16.20;99.90;;;;;;5070183;28;20043;-54
2023/09/15 00:40:53;;;;;;;15.18;8.80;;;16.20;99.90;;;;;;5070297;28;20041;-53
2023/09/15 00:43:18;;;;;;;16.27;8.23;;;16.20;99.90;;;;;;5067063;28;20028;-53
2023/09/15 00:45:44;;;;;;;16.77;8.95;;;16.20;99.90;;;;;;5072370;28;20067;-54
2023/09/15 00:48:10;;;;;;;18.75;9.23;;;16.20;99.90;;;;;;5069402;28;20067;-40
2023/09/15 00:50:36;;;;;;;17.85;9.95;;;16.10;99.90;;;;;;5069548;28;20469;-39
2023/09/15 00:53:08;;;;;;;14.30;9.90;;;16.10;99.90;;;;;;5070184;28;20043;-43
2023/09/15 00:55:34;;;;;;;16.75;8.43;;;16.10;99.90;;;;;;5062608;28;20505;-39
2023/09/15 00:58:03;;;;;;;14.38;9.18;;;16.10;99.90;;;;;;5068278;28;20424;-41
2023/09/15 01:00:29;;;;;;;14.27;9.50;;;16.00;99.90;;;;;;5069658;28;20569;-40
2023/09/15 01:02:55;;;;;;;16.38;10.18;;;15.90;99.90;;;;;;5075665;28;20090;-40
2023/09/15 01:05:24;;;;;;;15.00;9.43;;;15.90;99.90;;;;;;5073987;28;20115;-39
2023/09/15 01:07:54;;;;;;;17.55;9.13;;;15.90;99.90;;;;;;5073196;28;20226;-40
2023/09/15 01:10:21;;;;;;;16.33;9.68;;;15.90;99.90;;;;;;5075821;28;20036;-39
2023/09/15 01:12:48;;;;;;;15.98;9.38;;;15.80;99.90;;;;;;5073355;28;20492;-42
2023/09/15 01:15:16;;;;;;;16.40;10.07;;;15.80;99.90;;;;;;5075061;28;20488;-39
2023/09/15 01:18:00;;;;;;;15.38;9.30;;;15.80;99.90;;;;;;5074426;28;20056;-41
2023/09/15 01:20:56;;;;;;;12.88;8.25;;;15.90;99.90;;;;;;5056005;28;20028;-40
2023/09/15 01:23:32;;;;;;;17.30;9.83;;;15.80;99.90;;;;;;5055552;28;20496;-42
2023/09/15 01:26:18;;;;;;;13.57;8.70;;;15.80;99.90;;;;;;5074436;28;20326;-41
2023/09/15 01:29:01;;;;;;;12.90;8.27;;;15.80;99.90;;;;;;5073838;28;20056;-42
2023/09/15 01:31:27;;;;;;;18.23;9.30;;;15.70;99.90;;;;;;5074623;28;20099;-40
2023/09/15 01:33:55;;;;;;;16.15;9.32;;;15.80;99.90;;;;;;5074017;28;20071;-40
2023/09/15 01:36:20;;;;;;;17.52;8.75;;;15.70;99.90;;;;;;5074831;28;20368;-40
2023/09/15 01:38:46;;;;;;;14.18;9.63;;;15.70;99.90;;;;;;5074025;28;20115;-41
2023/09/15 01:41:11;;;;;;;16.23;9.57;;;15.60;99.90;;;;;;5073907;28;20128;-39
2023/09/15 01:43:37;;;;;;;13.60;9.38;;;15.60;99.90;;;;;;5072491;28;20032;-40
2023/09/15 01:46:03;;;;;;;14.55;8.95;;;15.50;99.90;;;;;;5073495;28;20052;-39
2023/09/15 01:48:31;;;;;;;11.23;8.23;;;15.50;99.90;;;;;;5074512;28;20063;-39
2023/09/15 01:50:57;;;;;;;;;;;15.50;99.90;;;;;;5073494;28;20496;-42
2023/09/15 01:53:25;;;;;;;16.42;8.98;;;15.50;99.90;;;;;;5075030;28;20296;-42
2023/09/15 01:55:50;;;;;;;12.73;8.30;;;15.50;99.90;;;;;;5074066;28;20118;-40
2023/09/15 01:58:18;;;;;;;15.98;9.20;;;15.50;99.90;;;;;;5068628;28;20077;-40
2023/09/15 02:00:44;;;;;;;;;;;15.50;99.90;;;;;;5073784;28;20362;-40
2023/09/15 02:03:10;;;;;;;16.23;8.38;;;15.50;99.90;;;;;;5073223;28;19920;-43
2023/09/15 02:05:35;;;;;;;14.55;8.27;;;15.40;99.90;;;;;;5063670;28;20024;-40
2023/09/15 02:08:01;;;;;;;14.95;7.93;;;15.40;99.90;;;;;;5072974;28;20032;-51
2023/09/15 02:10:27;;;;;;;15.30;8.85;;;15.40;99.90;;;;;;5072716;28;20040;-55
2023/09/15 02:12:52;;;;;;;10.98;7.82;;;15.40;99.90;;;;;;5071014;28;20033;-53
2023/09/15 02:15:19;;;;;;;13.88;8.55;;;15.40;99.90;;;;;;5074382;28;20029;-52
2023/09/15 02:17:44;;;;;;;19.25;8.90;;;15.40;99.90;;;;;;5073692;28;20082;-54
2023/09/15 02:20:13;;;;;;;15.38;8.05;;;15.40;99.90;;;;;;5073821;28;20021;-52
2023/09/15 02:22:42;;;;;;;13.10;9.38;;;15.30;99.90;;;;;;5074422;28;20020;-53
2023/09/15 02:25:11;;;;;;;13.25;8.30;;;15.30;99.90;;;;;;5073425;28;20021;-50
2023/09/15 02:27:38;;;;;;;15.45;8.27;;;15.20;99.90;;;;;;5072957;28;20126;-53
2023/09/15 02:30:07;;;;;;;14.48;8.23;;;15.20;99.90;;;;;;5073778;28;20524;-53
2023/09/15 02:32:33;;;;;;;12.95;8.70;;;15.30;99.90;;;;;;5061734;28;20095;-53
2023/09/15 02:34:59;;;;;;;13.35;8.63;;;15.20;99.90;;;;;;5073423;28;20101;-52
2023/09/15 02:37:43;;;;;;;13.63;8.85;;;15.20;99.90;;;;;;5074161;28;20533;-52
2023/09/15 02:40:09;;;;;;;14.60;8.93;;;15.20;99.90;;;;;;5072983;28;20064;-53
2023/09/15 02:42:35;;;;;;;18.02;7.93;;;15.10;99.90;;;;;;5073446;28;20021;-54
2023/09/15 02:45:01;;;;;;;13.32;9.02;;;15.10;99.90;;;;;;5073342;28;20031;-51
2023/09/15 02:47:30;;;;;;;12.05;7.97;;;15.10;99.90;;;;;;5073899;28;20034;-53
2023/09/15 02:49:55;;;;;;;16.95;8.35;;;15.10;99.90;;;;;;5073012;28;20016;-52
2023/09/15 02:52:21;;;;;;;13.98;8.43;;;15.10;99.90;;;;;;5074089;28;20120;-49
2023/09/15 02:54:49;;;;;;;17.05;8.10;;;15.10;99.90;;;;;;5073159;28;20021;-54
2023/09/15 02:57:15;;;;;;;12.57;8.23;;;15.10;99.90;;;;;;5071797;28;20024;-54
2023/09/15 02:59:40;;;;;;;14.70;8.23;;;15.00;99.90;;;;;;5071564;28;20023;-54
2023/09/15 03:02:12;;;;;;;11.63;7.70;;;15.00;99.90;;;;;;5071674;28;20488;-54
2023/09/15 03:04:38;;;;;;;19.02;7.78;;;15.00;99.90;;;;;;5053657;28;20039;-55
2023/09/15 03:07:04;;;;;;;11.77;7.68;;;15.00;99.90;;;;;;5065785;28;20048;-42
2023/09/15 03:09:31;;;;;;;13.02;7.82;;;15.00;99.90;;;;;;5070200;28;20087;-43
2023/09/15 03:11:57;;;;;;;13.25;7.55;;;15.00;99.90;;;;;;5060216;28;20021;-40
2023/09/15 03:14:23;;;;;;;11.18;7.40;;;14.90;99.90;;;;;;5072149;28;20392;-41
2023/09/15 03:16:48;;;;;;;16.67;7.80;;;14.90;99.90;;;;;;5073308;28;20103;-40
2023/09/15 03:19:14;;;;;;;18.60;7.85;;;14.90;99.90;;;;;;5072562;28;20016;-40
2023/09/15 03:21:40;;;;;;;14.32;7.70;;;14.90;99.90;;;;;;5072665;28;20025;-44
2023/09/15 03:24:07;;;;;;;12.63;6.97;;;14.90;99.90;;;;;;5070181;28;20495;-40
2023/09/15 03:26:33;;;;;;;11.75;7.50;;;14.90;99.90;;;;;;5072657;28;20033;-40
2023/09/15 03:28:58;;;;;;;14.35;7.43;;;14.90;99.90;;;;;;5071697;28;20069;-39
2023/09/15 03:31:24;;;;;;;13.82;7.30;;;14.90;99.90;;;;;;5072218;28;20032;-39
2023/09/15 03:33:50;;;;;;;13.18;7.05;;;14.90;99.90;;;;;;5072102;28;20025;-41
2023/09/15 03:36:16;;;;;;;12.63;7.45;;;14.90;99.90;;;;;;5071853;28;20032;-42
2023/09/15 03:38:41;;;;;;;13.20;7.18;;;14.90;99.90;;;;;;5073381;28;20024;-39
2023/09/15 03:41:07;;;;;;;10.98;7.00;;;14.80;99.90;;;;;;5071752;28;20032;-39
2023/09/15 03:43:32;;;;;;;17.52;7.05;;;14.90;99.90;;;;;;5072058;28;20021;-40
2023/09/15 03:45:58;;;;;;;13.43;7.32;;;14.90;99.90;;;;;;5073045;28;20111;-39
2023/09/15 03:48:24;;;;;;;10.88;6.68;;;14.90;99.90;;;;;;5073193;28;20032;-42
2023/09/15 03:50:52;;;;;;;10.95;7.30;;;14.90;99.90;;;;;;5072067;28;20103;-45
2023/09/15 03:53:17;;;;;;;12.75;7.38;;;14.80;99.90;;;;;;5071884;28;20078;-42
2023/09/15 03:55:43;;;;;;;16.90;7.60;;;14.90;99.90;;;;;;5071917;28;20033;-43
2023/09/15 03:58:09;;;;;;;12.65;6.10;;;14.80;99.90;;;;;;5069085;28;20052;-41
2023/09/15 04:00:35;;;;;;;15.18;6.93;;;14.80;99.90;;;;;;5071245;28;20472;-39
2023/09/15 04:03:03;;;;;;;11.52;6.70;;;14.80;99.90;;;;;;5072727;28;20107;-41
2023/09/15 04:05:30;;;;;;;14.32;6.47;;;14.70;99.90;;;;;;5072719;28;20033;-43
2023/09/15 04:07:56;;;;;;;12.73;7.05;;;14.70;99.90;;;;;;5071185;28;20037;-37
2023/09/15 04:10:22;;;;;;;10.05;6.63;;;14.80;99.90;;;;;;5067934;28;20525;-40
2023/09/15 04:12:48;;;;;;;15.63;6.47;;;14.70;99.90;;;;;;5068989;28;20104;-41
2023/09/15 04:15:15;;;;;;;16.02;7.38;;;14.70;99.90;;;;;;5068274;28;20028;-39
2023/09/15 04:17:41;;;;;;;11.02;6.15;;;14.70;99.90;;;;;;5070412;28;20021;-43
2023/09/15 04:20:09;;;;;;;7.85;5.22;;;14.70;99.90;;;;;;5071883;28;20060;-38
2023/09/15 04:22:39;;;;;;;10.15;6.15;;;14.70;99.90;;;;;;5070812;28;20064;-39
2023/09/15 04:25:06;;;;;;;11.52;6.20;;;14.60;99.90;;;;;;5069773;28;20023;-38
2023/09/15 04:27:32;;;;;;;11.70;6.15;;;14.60;99.90;;;;;;5069912;28;20017;-37
2023/09/15 04:29:59;;;;;;;14.15;6.30;;;14.60;99.90;;;;;;5068607;28;20021;-42
2023/09/15 04:32:24;;;;;;;13.00;6.60;;;14.60;99.90;;;;;;5068321;28;20027;-41
2023/09/15 04:34:51;;;;;;;9.77;5.72;;;14.60;99.90;;;;;;5071491;28;20469;-45
2023/09/15 04:37:17;;;;;;;14.25;6.40;;;14.60;99.90;;;;;;5074402;28;20029;-39
2023/09/15 04:39:43;;;;;;;10.88;5.82;;;14.60;99.90;;;;;;5073161;28;20095;-38
2023/09/15 04:42:10;;;;;;;10.40;6.30;;;14.60;99.90;;;;;;5072467;28;20555;-41
2023/09/15 04:44:36;;;;;;;15.10;5.77;;;14.50;99.90;;;;;;5074135;28;20446;-44
2023/09/15 04:47:01;;;;;;;11.48;5.40;;;14.50;99.90;;;;;;5073999;28;20083;-41
2023/09/15 04:49:27;;;;;;;9.57;5.53;;;14.50;99.90;;;;;;5073790;28;20020;-39
2023/09/15 04:51:53;;;;;;;11.07;6.32;;;14.50;99.90;;;;;;5075478;28;20060;-38
2023/09/15 04:54:19;;;;;;;9.00;5.65;;;14.50;99.90;;;;;;5075500;28;20039;-40
2023/09/15 04:56:45;;;;;;;8.07;5.25;;;14.50;99.90;;;;;;5070242;28;20477;-41
2023/09/15 04:59:15;;;;;;;12.80;7.15;;;14.50;99.90;;;;;;5075137;28;20032;-38
2023/09/15 05:01:45;;;;;;;13.20;6.25;;;14.50;99.90;;;;;;5072470;28;20032;-39
2023/09/15 05:04:11;;;;;;;11.18;4.95;;;14.40;99.90;;;;;;5074074;28;20028;-40
2023/09/15 05:06:37;;;;;;;10.93;5.97;;;14.40;99.90;;;;;;5075672;28;20033;-43
2023/09/15 05:09:09;;;;;;;12.10;5.97;;;14.40;99.90;;;;;;5075624;28;20396;-40
2023/09/15 05:11:35;;;;;;;7.63;5.57;;;14.40;99.90;;;;;;5057767;28;20127;-39
2023/09/15 05:14:01;;;;;;;7.65;5.13;;;14.40;99.90;;;;;;5074797;28;20020;-40
2023/09/15 05:16:27;;;;;;;7.57;5.20;;;14.30;99.90;;;;;;5074892;28;20032;-43
2023/09/15 05:18:53;;;;;;;11.90;5.35;;;14.30;99.90;;;;;;5075577;28;20058;-40
2023/09/15 05:21:19;;;;;;;10.73;5.63;;;14.30;99.90;;;;;;5070710;28;20046;-40
2023/09/15 05:23:44;;;;;;;10.18;6.00;;;14.30;99.90;;;;;;5072102;28;20021;-42
2023/09/15 05:26:10;;;;;;;8.63;5.32;;;14.20;99.90;;;;;;5075522;28;20382;-42
2023/09/15 05:28:36;;;;;;;9.65;5.15;;;14.20;99.90;;;;;;5073416;28;20032;-44
2023/09/15 05:31:01;;;;;;;11.52;5.15;;;14.20;99.90;;;;;;5075411;28;20033;-38
2023/09/15 05:33:27;;;;;;;9.32;6.38;;;14.20;99.90;;;;;;5075186;28;20028;-39
2023/09/15 05:35:56;;;;;;;10.95;6.47;;;14.10;99.90;;;;;;5074417;28;20393;-41
2023/09/15 05:38:23;;;;;;;8.77;6.25;;;14.10;99.90;;;;;;5074568;28;20028;-42
2023/09/15 05:40:49;;;;;;;12.63;5.80;;;14.10;99.90;;;;;;5074717;28;20037;-43
2023/09/15 05:43:19;;;;;;;13.32;5.75;;;14.10;99.90;;;;;;5073699;28;20051;-42
2023/09/15 05:45:45;;;;;;;14.38;6.82;;;14.20;99.90;;;;;;5072004;28;20055;-39
2023/09/15 05:48:16;;;;;;;15.55;6.70;;;14.20;99.90;;;;;;5071872;28;20028;-40
2023/09/15 05:50:41;;;;;;;8.30;5.80;;;14.30;99.90;;;;;;5075199;28;20036;-39
2023/09/15 05:53:07;;;;;;;12.07;6.38;;;14.40;99.90;;;;;;5074977;28;20033;-40
2023/09/15 05:55:33;;;;;;;13.63;6.10;;;14.40;99.90;;;;;;5073927;28;20393;-41
2023/09/15 05:57:58;;;;;;;10.90;5.68;;;14.50;99.90;;;;;;5072506;28;20504;-38
2023/09/15 06:00:24;;;;;;;18.55;5.97;;;14.50;99.90;;;;;;5074087;28;20473;-39
2023/09/15 06:02:50;;;;;;;12.45;6.57;;;14.50;99.90;;;;;;5069485;28;20017;-43
2023/09/15 06:05:19;;;;;;;12.07;5.82;;;14.50;99.90;;;;;;5061527;28;20078;-38
2023/09/15 06:07:45;;;;;;;14.95;6.35;;;14.60;99.90;;;;;;5054729;28;20386;-38
2023/09/15 06:10:11;;;;;;;10.30;5.70;;;14.50;99.90;;;;;;5073613;28;20031;-38
2023/09/15 06:12:36;;;;;;;11.60;6.95;;;14.50;99.90;;;;;;5072381;28;20035;-42
2023/09/15 06:15:02;;;;;;;13.30;6.78;;;14.50;99.90;;;;;;5073637;28;20103;-39
2023/09/15 06:17:28;;;;;;;17.38;6.68;;;14.60;99.90;;;;;;5073789;28;20075;-43
2023/09/15 06:19:54;;;;;;;13.50;6.85;;;14.60;99.90;;;;;;5068782;28;20028;-43
2023/09/15 06:22:21;;;;;;;13.10;6.25;;;14.60;99.90;;;;;;5054457;28;20478;-38
2023/09/15 06:24:46;;;;;;;11.10;6.10;;;14.70;99.90;;;;;;5061667;28;20020;-40
2023/09/15 06:27:12;;;;;;;10.73;6.40;;;14.70;99.90;;;;;;5074663;28;20362;-41
2023/09/15 06:29:38;;;;;;;13.80;5.75;;;14.70;99.90;;;;;;5071402;28;20028;-41
2023/09/15 06:32:04;;;;;;;11.52;5.65;;;14.70;99.90;;;;;;5074436;28;20017;-39
2023/09/15 06:34:29;;;;;;;9.85;6.00;;;14.80;99.90;;;;;;5074245;28;20035;-42
2023/09/15 06:36:55;;;;;;;8.40;5.65;;;14.80;99.90;;;;;;5074049;28;20535;-39
2023/09/15 06:39:23;;;;;;;13.65;5.60;;;14.90;99.90;;;;;;5074101;28;20029;-39
2023/09/15 06:41:49;;;;;;;15.02;5.50;;;14.90;99.90;;;;;;5073699;28;20119;-42
2023/09/15 06:44:15;;;;;;;10.50;5.35;;;15.00;99.90;;;;;;5072860;28;20074;-53
2023/09/15 06:46:41;;;;;;;7.13;5.70;;;15.00;99.90;;;;;;5072510;28;20036;-54
2023/09/15 06:49:06;;;;;;;9.75;5.72;;;15.00;99.90;;;;;;5073862;28;20459;-54
2023/09/15 06:51:32;;;;;;;10.38;6.00;;;15.10;99.90;;;;;;5074107;28;20024;-54
2023/09/15 06:53:59;;;;;;;14.90;6.20;;;15.20;99.90;;;;;;5073763;28;20024;-53
2023/09/15 06:56:25;;;;;;;9.20;5.20;;;15.30;99.90;;;;;;5072696;28;20544;-52
2023/09/15 06:58:51;;;;;;;10.20;5.07;;;15.40;99.90;;;;;;5069802;28;20048;-53
2023/09/15 07:01:17;;;;;;;8.73;5.28;;;15.50;99.90;;;;;;5073694;28;20044;-53
2023/09/15 07:03:42;;;;;;;7.82;5.07;;;15.60;99.90;;;;;;5065247;28;20020;-54
2023/09/15 07:06:08;;;;;;;9.05;5.68;;;15.60;99.90;;;;;;5052307;28;20032;-52
2023/09/15 07:08:33;;;;;;;9.52;5.10;;;15.70;99.90;;;;;;5053602;28;20504;-54
2023/09/15 07:10:59;;;;;;;9.35;5.53;;;15.80;99.90;;;;;;5053749;28;20417;-49
2023/09/15 07:13:25;;;;;;;7.00;4.95;;;15.90;99.90;;;;;;5073207;28;20461;-52
2023/09/15 07:15:50;;;;;;;6.70;4.78;;;15.90;99.90;;;;;;5073338;28;20503;-58
2023/09/15 07:18:16;;;;;;;8.13;5.07;;;16.00;99.90;;;;;;5070902;28;20056;-54
2023/09/15 07:20:42;;;;;;;15.93;5.70;;;16.10;99.90;;;;;;5069244;28;20039;-53
2023/09/15 07:23:08;;;;;;;9.10;4.80;;;16.20;99.90;;;;;;5064704;28;20543;-53
2023/09/15 07:25:33;;;;;;;11.48;4.85;;;16.20;99.90;;;;;;5066250;28;20021;-53
2023/09/15 07:27:59;;;;;;;10.52;4.78;;;16.40;99.90;;;;;;5071591;28;20115;-54
2023/09/15 07:30:25;;;;;;;9.95;4.57;;;16.40;99.90;;;;;;5071148;28;20470;-55
2023/09/15 07:32:51;;;;;;;7.80;4.25;;;16.50;99.90;;;;;;5070853;28;20031;-47
2023/09/15 07:35:17;;;;;;;8.10;4.65;;;16.60;99.90;;;;;;5062213;28;20389;-53
2023/09/15 07:37:43;;;;;;;9.85;4.82;;;16.70;99.90;;;;;;5063407;28;20075;-52
2023/09/15 07:40:10;;;;;;;8.07;4.55;;;16.80;99.90;;;;;;5060009;28;20056;-53
2023/09/15 07:42:36;;;;;;;12.48;4.38;;;16.90;99.90;;;;;;5066484;28;20017;-50
2023/09/15 07:45:03;;;;;;;9.73;5.72;;;17.00;99.90;;;;;;5070570;28;20055;-53
2023/09/15 07:47:28;;;;;;;8.38;3.97;;;17.10;99.90;;;;;;5069444;28;20445;-54
2023/09/15 07:49:55;;;;;;;7.15;4.30;;;17.20;99.90;;;;;;5066759;28;20048;-51
2023/09/15 07:52:22;;;;;;;10.07;5.30;;;17.30;99.90;;;;;;5069394;28;20024;-51
2023/09/15 07:54:47;;;;;;;11.50;3.80;;;17.30;99.90;;;;;;5066166;28;20107;-54
2023/09/15 07:57:14;;;;;;;6.03;3.22;;;17.40;99.90;;;;;;5060593;28;20116;-40
2023/09/15 07:59:40;;;;;;;6.80;4.60;;;17.40;99.90;;;;;;5072314;28;20509;-40
2023/09/15 08:02:05;;;;;;;9.35;4.50;;;17.50;99.90;;;;;;5072673;28;20063;-42
2023/09/15 08:04:31;;;;;;;6.30;3.40;;;17.50;99.90;;;;;;5068651;28;20033;-40
2023/09/15 08:06:56;;;;;;;5.65;3.80;;;17.60;99.90;;;;;;5072776;28;20470;-38
2023/09/15 08:09:22;;;;;;;8.45;3.83;;;17.60;99.90;;;;;;5072677;28;20497;-42
2023/09/15 08:11:48;;;;;;;8.27;4.03;;;17.70;99.90;;;;;;5069766;28;20111;-38
2023/09/15 08:14:13;;;;;;;9.10;3.60;;;17.80;99.90;;;;;;5070880;28;20029;-38
2023/09/15 08:16:39;;;;;;;6.03;3.15;;;17.90;99.90;;;;;;5071443;28;20532;-42
2023/09/15 08:19:05;;;;;;;5.18;3.25;;;18.00;99.90;;;;;;5073984;28;20097;-45
2023/09/15 08:21:31;;;;;;;6.13;3.53;;;18.10;99.90;;;;;;5072532;28;20016;-39
2023/09/15 08:23:57;;;;;;;6.03;3.53;;;18.20;99.90;;;;;;5070092;28;20028;-42
2023/09/15 08:26:25;;;;;;;3.85;3.17;;;18.30;99.90;;;;;;5069582;28;20029;-41
2023/09/15 08:28:50;;;;;;;;;;;18.50;99.90;;;;;;5066173;28;20020;-42
2023/09/15 08:31:16;;;;;;;5.93;2.92;;;18.60;99.90;;;;;;5062497;28;19916;-40
2023/09/15 08:33:42;;;;;;;5.13;3.45;;;18.70;99.90;;;;;;5067882;28;20024;-40
2023/09/15 08:36:07;;;;;;;8.43;3.70;;;18.80;99.90;;;;;;5065665;28;20056;-40
2023/09/15 08:38:33;;;;;;;5.65;3.13;;;19.00;99.90;;;;;;5060927;28;20514;-44
2023/09/15 08:41:22;;;;;;;5.20;2.78;;;19.00;99.90;;;;;;5061424;28;20045;-40
2023/09/15 08:43:49;;;;;;;3.92;3.03;;;19.10;99.90;;;;;;5065349;28;20809;-38
2023/09/15 08:46:15;;;;;;;6.95;2.53;;;19.20;99.90;;;;;;5067588;28;20032;-39
2023/09/15 08:48:48;;;;;;;5.72;2.92;;;19.20;99.90;;;;;;5066852;28;20082;-42
2023/09/15 08:51:14;;;;;;;5.10;2.92;;;19.40;99.90;;;;;;5069213;28;20028;-41
2023/09/15 08:53:42;;;;;;;9.05;2.92;;;19.50;99.90;;;;;;5068925;28;20485;-46
2023/09/15 08:56:11;;;;;;;10.82;3.90;;;19.50;99.90;;;;;;5068982;28;20029;-39
2023/09/15 08:58:37;;;;;;;5.45;2.67;;;19.70;99.90;;;;;;5069636;28;20017;-40
2023/09/15 09:01:07;;;;;;;5.70;2.80;;;19.80;99.90;;;;;;5067691;28;20485;-42
2023/09/15 09:03:35;;;;;;;5.88;3.95;;;19.90;99.90;;;;;;5065302;28;20024;-41
2023/09/15 09:06:03;;;;;;;6.03;2.78;;;20.00;99.90;;;;;;5070475;28;20112;-40
2023/09/15 09:08:29;;;;;;;;;;;20.20;99.90;;;;;;5071745;28;20031;-40
2023/09/15 09:11:14;;;;;;;5.30;2.63;;;20.20;99.90;;;;;;5066904;28;19915;-40
2023/09/15 09:13:40;;;;;;;9.35;3.38;;;20.40;99.90;;;;;;5057821;28;20500;-40
2023/09/15 09:16:07;;;;;;;3.80;2.90;;;20.50;99.90;;;;;;5065005;28;20025;-41
2023/09/15 09:18:34;;;;;;;11.13;2.95;;;20.60;99.90;;;;;;5064191;28;20095;-39
2023/09/15 09:21:03;;;;;;;4.72;2.80;;;20.70;99.90;;;;;;5066061;28;20110;-40
2023/09/15 09:23:29;;;;;;;8.05;2.95;;;20.70;99.90;;;;;;5066395;28;20366;-50
2023/09/15 09:25:54;;;;;;;3.25;2.88;;;20.70;99.90;;;;;;5074202;28;20082;-38
2023/09/15 09:28:21;;;;;;;3.90;2.60;;;20.80;99.90;;;;;;5072211;28;20027;-39
2023/09/15 09:30:46;;;;;;;4.60;3.30;;;20.80;99.90;;;;;;5070968;28;20016;-39
2023/09/15 09:33:12;;;;;;;6.10;2.97;;;20.90;99.90;;;;;;5067621;28;20032;-43
2023/09/15 09:35:38;;;;;;;6.10;2.83;;;21.00;99.90;;;;;;5067394;28;20025;-41
2023/09/15 09:38:04;;;;;;;4.25;2.97;;;21.10;99.90;;;;;;5073594;28;20107;-37
2023/09/15 09:40:33;;;;;;;7.25;3.42;;;21.20;99.90;;;;;;5071829;28;20437;-41
2023/09/15 09:42:59;;;;;;;4.15;2.42;;;21.40;99.90;;;;;;5074464;28;20131;-39
2023/09/15 09:45:29;;;;;;;5.22;3.00;;;21.50;99.90;;;;;;5073392;28;20108;-40
2023/09/15 09:47:56;;;;;;;9.48;4.00;;;21.60;99.90;;;;;;5071310;28;20075;-42
2023/09/15 09:50:22;;;;;;;7.25;3.10;;;21.80;99.90;;;;;;5074259;28;20122;-42
2023/09/15 09:52:48;;;;;;;4.40;2.85;;;21.80;99.90;;;;;;5073738;28;20029;-41
2023/09/15 09:55:16;;;;;;;3.50;2.88;;;21.90;99.90;;;;;;5071198;28;20066;-41
2023/09/15 09:57:42;;;;;;;5.40;3.00;;;21.90;99.90;;;;;;5069769;28;20059;-41
2023/09/15 10:00:17;;;;;;;4.47;2.83;;;22.00;99.90;;;;;;5071045;28;20504;-41
2023/09/15 10:02:43;;;;;;;9.48;3.78;;;22.00;99.90;;;;;;5073239;28;20025;-40
2023/09/15 10:05:09;;;;;;;2.47;2.28;;;22.00;99.90;;;;;;5074773;28;20043;-41
2023/09/15 10:07:36;;;;;;;8.50;3.65;;;22.10;99.90;;;;;;5074997;28;20530;-45
2023/09/15 10:10:06;;;;;;;5.87;2.93;;;22.20;99.90;;;;;;5073528;28;20095;-42
2023/09/15 10:12:32;;;;;;;5.05;2.55;;;22.30;99.90;;;;;;5073083;28;20036;-46
2023/09/15 10:14:58;;;;;;;2.97;2.63;;;22.40;99.90;;;;;;5071208;28;20025;-40
2023/09/15 10:17:24;;;;;;;3.17;2.80;;;22.50;99.90;;;;;;5074695;28;20047;-39
2023/09/15 10:19:51;;;;;;;7.38;3.13;;;22.50;99.90;;;;;;5074363;28;20024;-38
2023/09/15 10:22:17;;;;;;;7.55;3.42;;;22.60;99.90;;;;;;5074674;28;20025;-38
2023/09/15 10:24:44;;;;;;;7.53;3.42;;;22.80;99.90;;;;;;5074552;28;20092;-40
2023/09/15 10:27:11;;;;;;;4.32;3.30;;;22.80;99.90;;;;;;5070260;28;20089;-39
2023/09/15 10:29:37;;;;;;;4.10;2.83;;;22.80;99.90;;;;;;5074247;28;20035;-38
2023/09/15 10:32:04;;;;;;;5.13;2.80;;;22.80;99.90;;;;;;5074488;28;20028;-40
2023/09/15 10:34:31;;;;;;;3.60;3.17;;;22.80;99.90;;;;;;5071229;28;20033;-39
2023/09/15 10:37:01;;;;;;;8.57;3.63;;;22.70;99.90;;;;;;5072648;28;20056;-39
2023/09/15 10:39:38;;;;;;;6.43;2.90;;;22.70;99.90;;;;;;5072838;28;20094;-39
2023/09/15 10:42:11;;;;;;;11.50;3.35;;;22.60;99.90;;;;;;5072971;28;20036;-40
2023/09/15 10:44:37;;;;;;;5.57;2.92;;;22.70;99.90;;;;;;5069723;28;20059;-40
2023/09/15 10:47:14;;;;;;;4.78;3.05;;;22.90;99.90;;;;;;5071460;28;20044;-40
2023/09/15 10:49:47;;;;;;;;;;;23.00;99.90;;;;;;5071376;28;20040;-40
2023/09/15 10:52:13;;;;;;;2.72;2.47;;;23.20;99.90;;;;;;5071563;28;19963;-41
2023/09/15 10:54:38;;;;;;;5.75;2.95;;;23.20;99.90;;;;;;5073921;28;20028;-44
2023/09/15 10:57:08;;;;;;;2.67;2.47;;;23.20;99.90;;;;;;5069260;28;20473;-43
2023/09/15 10:59:35;;;;;;;4.53;2.75;;;23.30;99.90;;;;;;5066068;28;20032;-42
2023/09/15 11:02:02;;;;;;;8.23;3.22;;;23.20;99.90;;;;;;5064705;28;20028;-44
2023/09/15 11:04:29;;;;;;;4.78;2.97;;;23.20;99.90;;;;;;5069688;28;20020;-43
2023/09/15 11:06:55;;;;;;;6.57;2.63;;;23.20;99.90;;;;;;5070152;28;20121;-41
2023/09/15 11:09:21;;;;;;;7.93;2.78;;;23.10;99.90;;;;;;5069774;28;20457;-40
2023/09/15 11:11:49;;;;;;;6.80;3.17;;;23.20;99.90;;;;;;5070186;28;20029;-39
2023/09/15 11:14:21;;;;;;;7.53;2.92;;;23.30;99.90;;;;;;5071477;28;20279;-40
2023/09/15 11:16:49;;;;;;;3.38;2.50;;;23.40;99.90;;;;;;5072001;28;20028;-40
2023/09/15 11:19:17;;;;;;;5.60;2.42;;;23.40;99.90;;;;;;5069965;28;20107;-41
2023/09/15 11:21:45;;;;;;;4.82;2.80;;;23.50;99.90;;;;;;5069720;28;20099;-40
2023/09/15 11:24:11;;;;;;;5.88;3.42;;;23.60;99.90;;;;;;5072406;28;20384;-40
2023/09/15 11:26:48;;;;;;;4.50;2.95;;;23.70;99.90;;;;;;5071220;28;20031;-40
2023/09/15 11:29:15;;;;;;;8.27;3.88;;;23.60;99.90;;;;;;5069781;28;20496;-45
2023/09/15 11:31:41;;;;;;;5.10;2.83;;;23.50;99.90;;;;;;5067971;28;20139;-40
2023/09/15 11:34:08;;;;;;;5.32;3.22;;;23.60;99.90;;;;;;5073047;28;20037;-38
2023/09/15 11:36:35;;;;;;;3.17;2.47;;;23.70;99.90;;;;;;5070518;28;20056;-39
2023/09/15 11:39:11;;;;;;;6.53;3.90;;;23.70;99.90;;;;;;5068639;28;20021;-40
2023/09/15 11:42:04;;;;;;;7.50;3.20;;;23.90;99.90;;;;;;5068222;28;20040;-39
2023/09/15 11:44:30;;;;;;;3.22;2.95;;;23.90;99.90;;;;;;5070112;28;20029;-39
2023/09/15 11:46:58;;;;;;;6.38;3.10;;;24.00;99.90;;;;;;5072769;28;20025;-39
2023/09/15 11:49:25;;;;;;;6.20;3.20;;;24.00;99.90;;;;;;5070308;28;20029;-39
2023/09/15 11:51:55;;;;;;;7.85;4.30;;;24.10;99.90;;;;;;5068807;28;20033;-39
2023/09/15 11:54:21;;;;;;;6.43;3.58;;;24.10;99.90;;;;;;5070375;28;20021;-39
2023/09/15 11:57:06;;;;;;;8.45;3.83;;;24.10;99.90;;;;;;5070713;28;20037;-39
2023/09/15 11:59:31;;;;;;;5.35;3.38;;;24.20;99.90;;;;;;5069714;28;20044;-39
2023/09/15 12:02:01;;;;;;;4.53;2.80;;;24.20;99.90;;;;;;5069582;28;20049;-39
2023/09/15 12:04:28;;;;;;;5.18;3.58;;;24.20;99.90;;;;;;5070618;28;20116;-38
2023/09/15 12:06:54;;;;;;;3.17;1.97;;;24.10;99.90;;;;;;5072575;28;20047;-39
2023/09/15 12:09:22;;;;;;;8.82;4.05;;;24.10;99.90;;;;;;5067106;28;20278;-41
2023/09/15 12:11:47;;;;;;;5.95;3.25;;;24.30;99.90;;;;;;5068450;28;20401;-38
2023/09/15 12:14:14;;;;;;;5.78;2.78;;;24.20;99.90;;;;;;5069303;28;20024;-53
2023/09/15 12:16:43;;;;;;;6.97;3.33;;;24.10;99.90;;;;;;5069150;28;20020;-53
2023/09/15 12:19:11;;;;;;;8.80;3.17;;;24.10;99.90;;;;;;5068986;28;20120;-54
2023/09/15 12:21:36;;;;;;;;;;;24.20;99.90;;;;;;5072060;28;20060;-45
2023/09/15 12:24:10;;;;;;;4.38;2.90;;;24.20;99.90;;;;;;5070643;28;20639;-53
2023/09/15 12:26:38;;;;;;;5.97;2.90;;;24.30;99.90;;;;;;5067890;28;20029;-51
2023/09/15 12:29:04;;;;;;;5.68;3.67;;;24.40;99.90;;;;;;5066406;28;20036;-51
2023/09/15 12:31:40;;;;;;;5.25;3.72;;;24.60;99.90;;;;;;5067766;28;20020;-54
2023/09/15 12:34:05;;;;;;;9.60;3.38;;;24.70;99.90;;;;;;5068335;28;20107;-51
2023/09/15 12:36:32;;;;;;;7.40;3.00;;;24.70;99.90;;;;;;5069723;28;20107;-52
2023/09/15 12:38:58;;;;;;;5.43;3.70;;;24.60;99.90;;;;;;5059898;28;20048;-52
2023/09/15 12:41:24;;;;;;;12.07;3.78;;;24.40;99.90;;;;;;5072125;28;20072;-51
2023/09/15 12:43:49;;;;;;;4.38;2.88;;;24.20;99.90;;;;;;5071014;28;20067;-50